Time;durP1;ratioP1;P1;durP2;ratioP2;P2;SDS_P1;SDS_P2;PMS_P1;PMS_P2;Temp;Humidity;BMP_temperature;BMP_pressure;BME280_temperature;BME280_humidity;BME280_pressure;Samples;Min_cycle;Max_cycle;Signal;HPM_P1;HPM_P2
2022/10/24 00:02:00;;;;;;;6.43;2.42;;;13.80;99.90;;;;;;6205076;23;20103;-74
2022/10/24 00:04:26;;;;;;;7.78;2.53;;;13.80;99.90;;;;;;6209075;23;20097;-77
2022/10/24 00:06:52;;;;;;;7.03;2.83;;;13.80;99.90;;;;;;6207867;23;20617;-77
2022/10/24 00:09:17;;;;;;;8.80;2.60;;;13.80;99.90;;;;;;6175514;23;20016;-77
2022/10/24 00:11:43;;;;;;;6.88;2.83;;;13.80;99.90;;;;;;6205272;23;20021;-78
2022/10/24 00:14:09;;;;;;;7.18;2.42;;;13.70;99.90;;;;;;6205076;23;20517;-77
2022/10/24 00:16:35;;;;;;;8.50;2.75;;;13.80;99.90;;;;;;6207815;23;20008;-77
2022/10/24 00:19:00;;;;;;;6.80;2.38;;;13.80;99.90;;;;;;6176119;23;20108;-77
2022/10/24 00:21:26;;;;;;;6.38;2.47;;;13.90;99.90;;;;;;6198483;23;20021;-77
2022/10/24 00:23:52;;;;;;;5.05;1.92;;;13.90;99.90;;;;;;6206251;23;20078;-77
2022/10/24 00:26:18;;;;;;;7.50;2.35;;;13.90;99.90;;;;;;6173629;23;20079;-77
2022/10/24 00:28:43;;;;;;;9.75;2.55;;;13.90;99.90;;;;;;6174982;23;20021;-77
2022/10/24 00:31:15;;;;;;;4.13;2.83;;;13.80;99.90;;;;;;6206185;23;20055;-76
2022/10/24 00:33:41;;;;;;;7.95;2.22;;;13.90;99.90;;;;;;6205792;23;20017;-78
2022/10/24 00:36:16;;;;;;;5.10;2.00;;;13.90;99.90;;;;;;6204426;23;20017;-77
2022/10/24 00:38:42;;;;;;;5.68;2.33;;;13.90;99.90;;;;;;6177012;23;20027;-77
2022/10/24 00:41:20;;;;;;;6.72;2.08;;;14.00;99.90;;;;;;6206256;23;20021;-77
2022/10/24 00:43:47;;;;;;;9.18;2.70;;;14.10;99.90;;;;;;6204169;23;20097;-77
2022/10/24 00:46:15;;;;;;;7.43;2.00;;;14.00;99.90;;;;;;6205648;23;20485;-77
2022/10/24 00:48:51;;;;;;;5.85;1.80;;;14.00;99.90;;;;;;6206797;23;20480;-77
2022/10/24 00:51:23;;;;;;;4.80;1.90;;;14.00;99.90;;;;;;6175133;23;20025;-77
2022/10/24 00:53:51;;;;;;;7.63;1.85;;;14.00;99.90;;;;;;6204830;23;20483;-76
2022/10/24 00:56:20;;;;;;;4.85;1.98;;;14.10;99.90;;;;;;6206067;23;20103;-77
2022/10/24 00:58:47;;;;;;;6.22;2.30;;;14.10;99.90;;;;;;6206264;23;20460;-77
2022/10/24 01:01:13;;;;;;;5.38;2.33;;;14.10;99.90;;;;;;6205686;23;20024;-76
2022/10/24 01:03:39;;;;;;;6.55;2.20;;;14.10;99.90;;;;;;6207121;23;20082;-76
2022/10/24 01:06:31;;;;;;;9.25;2.40;;;14.00;99.90;;;;;;6174478;23;20127;-76
2022/10/24 01:09:10;;;;;;;4.53;2.10;;;14.00;99.90;;;;;;6206683;23;20021;-77
2022/10/24 01:12:13;;;;;;;6.80;2.10;;;14.10;99.90;;;;;;6205594;23;20115;-76
2022/10/24 01:15:06;;;;;;;7.80;2.33;;;14.00;99.90;;;;;;6205971;23;20330;-76
2022/10/24 01:18:01;;;;;;;11.45;2.60;;;14.10;99.90;;;;;;6206982;23;20435;-76
2022/10/24 01:20:42;;;;;;;7.70;2.35;;;14.10;99.90;;;;;;6176002;23;20017;-77
2022/10/24 01:23:22;;;;;;;10.82;2.50;;;14.20;99.90;;;;;;6198236;23;20067;-76
2022/10/24 01:26:09;;;;;;;8.32;2.30;;;14.20;99.90;;;;;;6179659;23;20090;-77
2022/10/24 01:29:25;;;;;;;5.53;2.40;;;14.30;99.90;;;;;;6226281;23;20100;-77
2022/10/24 01:32:10;;;;;;;11.15;2.53;;;14.40;99.90;;;;;;6144203;23;20051;-77
2022/10/24 01:34:54;;;;;;;7.80;2.17;;;14.40;99.90;;;;;;6218022;23;20017;-77
2022/10/24 01:37:22;;;;;;;7.80;2.65;;;14.50;99.90;;;;;;6173275;23;20028;-77
2022/10/24 01:39:58;;;;;;;6.38;2.10;;;14.40;99.90;;;;;;6205027;23;20028;-77
2022/10/24 01:42:26;;;;;;;7.68;2.20;;;14.40;99.90;;;;;;6175464;23;20031;-76
2022/10/24 01:44:55;;;;;;;10.30;2.40;;;14.60;99.90;;;;;;6205005;23;20017;-77
2022/10/24 01:47:26;;;;;;;9.80;2.45;;;14.60;99.90;;;;;;6206763;23;20024;-77
2022/10/24 01:50:00;;;;;;;5.93;2.28;;;14.60;99.90;;;;;;6206986;23;20039;-76
2022/10/24 01:52:29;;;;;;;10.95;3.00;;;14.70;99.90;;;;;;6173562;23;20044;-77
2022/10/24 01:54:55;;;;;;;8.15;3.17;;;14.70;99.90;;;;;;6206388;23;20514;-77
2022/10/24 01:57:27;;;;;;;5.82;2.50;;;14.70;99.90;;;;;;6206280;23;20024;-76
2022/10/24 01:59:52;;;;;;;7.35;2.80;;;14.70;99.90;;;;;;6178303;23;20192;-76
2022/10/24 02:02:27;;;;;;;9.38;2.75;;;14.70;99.90;;;;;;6206052;23;20044;-76
2022/10/24 02:05:08;;;;;;;7.65;2.35;;;14.80;99.90;;;;;;6180134;23;20103;-77
2022/10/24 02:07:35;;;;;;;8.82;2.10;;;14.70;99.90;;;;;;6174948;23;20017;-76
2022/10/24 02:10:09;;;;;;;7.68;2.80;;;14.70;99.90;;;;;;6206926;23;20028;-76
2022/10/24 02:12:43;;;;;;;8.60;3.08;;;14.80;99.90;;;;;;6206285;23;20499;-75
2022/10/24 02:15:26;;;;;;;19.25;3.72;;;14.80;99.90;;;;;;6203915;23;20020;-76
2022/10/24 02:17:53;;;;;;;6.72;2.83;;;14.80;99.90;;;;;;6208142;23;20028;-76
2022/10/24 02:20:27;;;;;;;7.72;2.63;;;14.80;99.90;;;;;;6174349;23;20021;-77
2022/10/24 02:23:02;;;;;;;7.70;2.53;;;14.80;99.90;;;;;;6206731;23;20095;-77
2022/10/24 02:25:34;;;;;;;8.48;3.72;;;14.80;99.90;;;;;;6207616;23;20091;-76
2022/10/24 02:28:19;;;;;;;12.73;3.10;;;14.80;99.90;;;;;;6207046;23;20555;-76
2022/10/24 02:30:58;;;;;;;8.40;2.30;;;14.90;99.90;;;;;;6176058;23;20633;-76
2022/10/24 02:33:26;;;;;;;8.80;2.90;;;14.80;99.90;;;;;;6174514;23;20028;-76
2022/10/24 02:35:54;;;;;;;10.40;2.58;;;14.80;99.90;;;;;;6179651;23;20024;-76
2022/10/24 02:38:38;;;;;;;7.53;2.60;;;14.80;99.90;;;;;;6206734;23;20110;-76
2022/10/24 02:41:10;;;;;;;9.50;2.85;;;14.80;99.90;;;;;;6205750;23;20035;-75
2022/10/24 02:43:40;;;;;;;7.85;2.60;;;14.70;99.90;;;;;;6176798;23;20087;-76
2022/10/24 02:46:06;;;;;;;10.45;3.88;;;14.80;99.90;;;;;;6176949;23;20465;-76
2022/10/24 02:48:40;;;;;;;5.38;2.40;;;14.70;99.90;;;;;;6202687;23;20021;-76
2022/10/24 02:51:06;;;;;;;8.50;2.80;;;14.70;99.90;;;;;;6176452;23;20027;-74
2022/10/24 02:53:34;;;;;;;13.20;4.45;;;14.70;99.90;;;;;;6200659;23;20016;-76
2022/10/24 02:56:00;;;;;;;7.30;2.70;;;14.60;99.90;;;;;;6175751;23;20423;-75
2022/10/24 02:58:26;;;;;;;12.18;2.90;;;14.70;99.90;;;;;;6201338;23;20056;-76
2022/10/24 03:00:52;;;;;;;9.55;3.15;;;14.60;99.90;;;;;;6224944;23;20017;-75
2022/10/24 03:03:17;;;;;;;5.70;2.80;;;14.60;99.90;;;;;;6226848;23;20032;-76
2022/10/24 03:05:43;;;;;;;7.15;3.25;;;14.60;99.90;;;;;;6212326;23;20040;-76
2022/10/24 03:08:09;;;;;;;7.63;2.97;;;14.50;99.90;;;;;;6173952;23;20477;-75
2022/10/24 03:10:34;;;;;;;4.93;2.67;;;14.50;99.90;;;;;;6200728;23;20489;-76
2022/10/24 03:13:00;;;;;;;9.63;2.83;;;14.50;99.90;;;;;;6174659;23;20408;-76
2022/10/24 03:15:26;;;;;;;10.85;2.53;;;14.50;99.90;;;;;;6197941;23;20031;-75
2022/10/24 03:17:51;;;;;;;7.45;2.50;;;14.50;99.90;;;;;;6204458;23;20456;-76
2022/10/24 03:20:17;;;;;;;7.65;2.80;;;14.60;99.90;;;;;;6205909;23;20363;-76
2022/10/24 03:22:43;;;;;;;9.52;3.08;;;14.60;99.90;;;;;;6178679;23;20049;-77
2022/10/24 03:25:10;;;;;;;8.60;2.70;;;14.60;99.90;;;;;;6173276;23;20036;-76
2022/10/24 03:27:36;;;;;;;8.38;3.30;;;14.70;99.90;;;;;;6204422;23;20020;-76
2022/10/24 03:30:02;;;;;;;11.25;2.58;;;14.70;99.90;;;;;;6206499;23;20029;-76
2022/10/24 03:32:28;;;;;;;7.43;2.47;;;14.70;99.90;;;;;;6206687;23;20020;-77
2022/10/24 03:34:55;;;;;;;6.72;2.70;;;14.70;99.90;;;;;;6208896;23;20013;-77
2022/10/24 03:37:22;;;;;;;6.32;2.40;;;14.60;99.90;;;;;;6208791;23;20424;-76
2022/10/24 03:39:49;;;;;;;5.47;2.42;;;14.70;99.90;;;;;;6213375;23;20440;-76
2022/10/24 03:42:17;;;;;;;11.13;2.42;;;14.70;99.90;;;;;;6168432;23;20460;-76
2022/10/24 03:44:42;;;;;;;5.55;2.40;;;14.70;99.90;;;;;;6202364;23;20028;-76
2022/10/24 03:49:23;;;;;;;11.88;3.33;;;14.70;99.90;;;;;;5069795;27;20129;-75
2022/10/24 03:51:49;;;;;;;7.93;2.20;;;14.70;99.90;;;;;;5072121;28;20040;-75
2022/10/24 03:54:15;;;;;;;11.73;2.45;;;14.70;99.90;;;;;;5071581;28;20443;-76
2022/10/24 03:56:44;;;;;;;9.85;2.40;;;14.70;99.90;;;;;;5072490;28;20491;-76
2022/10/24 03:59:10;;;;;;;11.27;2.42;;;14.70;99.90;;;;;;5075922;28;20136;-77
2022/10/24 04:01:36;;;;;;;8.63;2.03;;;14.50;99.90;;;;;;5069364;28;20173;-76
2022/10/24 04:04:02;;;;;;;12.50;2.65;;;14.40;99.90;;;;;;5071889;28;20123;-75
2022/10/24 04:06:27;;;;;;;6.40;2.40;;;14.40;99.90;;;;;;5071272;28;20052;-76
2022/10/24 04:08:53;;;;;;;9.05;2.10;;;14.40;99.90;;;;;;5074099;28;20052;-74
2022/10/24 04:11:19;;;;;;;7.88;2.42;;;14.40;99.90;;;;;;5056638;28;20140;-76
2022/10/24 04:13:44;;;;;;;7.85;2.38;;;14.40;99.90;;;;;;5051620;28;20057;-77
2022/10/24 04:16:10;;;;;;;5.25;2.30;;;14.30;99.90;;;;;;5053535;28;20408;-76
2022/10/24 04:18:36;;;;;;;7.72;2.42;;;14.30;99.90;;;;;;5050488;28;20482;-77
2022/10/24 04:21:02;;;;;;;5.30;2.28;;;14.20;99.90;;;;;;5051153;28;20133;-76
2022/10/24 04:23:33;;;;;;;11.70;2.25;;;14.30;99.90;;;;;;5052612;28;20128;-77
2022/10/24 04:25:59;;;;;;;6.72;2.40;;;14.20;99.90;;;;;;5053172;28;20045;-77
2022/10/24 04:28:25;;;;;;;5.47;2.75;;;14.10;99.90;;;;;;5050319;28;20118;-77
2022/10/24 04:30:55;;;;;;;7.22;2.08;;;14.20;99.90;;;;;;5063373;28;20041;-77
2022/10/24 04:33:21;;;;;;;9.63;2.30;;;14.10;99.90;;;;;;5063167;28;20104;-76
2022/10/24 04:35:48;;;;;;;6.18;2.03;;;14.10;99.90;;;;;;5062387;28;20037;-76
2022/10/24 04:38:14;;;;;;;8.00;2.47;;;14.10;99.90;;;;;;5057944;28;20150;-76
2022/10/24 04:40:39;;;;;;;5.43;2.15;;;14.00;99.90;;;;;;5052306;28;20037;-76
2022/10/24 04:43:05;;;;;;;8.57;2.15;;;14.00;99.90;;;;;;5050785;28;20045;-76
2022/10/24 04:45:33;;;;;;;6.70;2.13;;;14.00;99.90;;;;;;5053732;28;20060;-76
2022/10/24 04:48:01;;;;;;;9.45;2.28;;;14.00;99.90;;;;;;5054167;28;20045;-76
2022/10/24 04:50:27;;;;;;;5.00;1.83;;;14.00;99.90;;;;;;5056762;28;20044;-76
2022/10/24 04:52:53;;;;;;;5.13;1.70;;;14.10;99.90;;;;;;5047574;28;20107;-76
2022/10/24 04:55:18;;;;;;;8.85;2.10;;;14.10;99.90;;;;;;5049359;28;20103;-76
2022/10/24 04:57:44;;;;;;;6.95;2.00;;;14.10;99.90;;;;;;5048363;28;20037;-76
2022/10/24 05:00:10;;;;;;;5.45;1.80;;;14.20;99.90;;;;;;5038379;28;20033;-76
2022/10/24 05:02:36;;;;;;;9.57;2.53;;;14.30;99.90;;;;;;5039878;28;20037;-76
2022/10/24 05:05:01;;;;;;;10.70;2.22;;;14.30;99.90;;;;;;5037938;28;20411;-76
2022/10/24 05:07:27;;;;;;;13.00;1.80;;;14.30;99.90;;;;;;5038815;28;20068;-77
2022/10/24 05:09:53;;;;;;;8.80;2.33;;;14.30;99.90;;;;;;5034416;28;20389;-76
2022/10/24 05:12:18;;;;;;;5.72;1.80;;;14.40;99.90;;;;;;5042225;28;20049;-80
2022/10/24 05:14:46;;;;;;;5.93;1.55;;;14.40;99.90;;;;;;5037857;28;20144;-76
2022/10/24 05:17:12;;;;;;;6.15;1.77;;;14.40;99.90;;;;;;5037782;28;20067;-76
2022/10/24 05:19:38;;;;;;;9.02;1.80;;;14.50;99.90;;;;;;5038023;28;20120;-77
2022/10/24 05:22:04;;;;;;;6.88;1.80;;;14.60;99.90;;;;;;5038977;28;20128;-75
2022/10/24 05:24:29;;;;;;;9.15;1.85;;;14.60;99.90;;;;;;5037824;28;20060;-77
2022/10/24 05:26:55;;;;;;;12.13;2.47;;;14.60;99.90;;;;;;5038984;28;20037;-75
2022/10/24 05:29:21;;;;;;;7.55;2.22;;;14.60;99.90;;;;;;5031938;28;20140;-75
2022/10/24 05:31:46;;;;;;;7.60;1.67;;;14.60;99.90;;;;;;5039735;28;20060;-76
2022/10/24 05:34:12;;;;;;;6.85;1.90;;;14.60;99.90;;;;;;5037021;28;20048;-74
2022/10/24 05:36:39;;;;;;;6.90;1.90;;;14.60;99.90;;;;;;5036111;28;20049;-74
2022/10/24 05:39:05;;;;;;;6.55;1.67;;;14.60;99.90;;;;;;5036565;28;20045;-75
2022/10/24 05:41:31;;;;;;;6.05;1.70;;;14.60;99.90;;;;;;5042527;28;20072;-75
2022/10/24 05:43:57;;;;;;;5.72;1.75;;;14.60;99.90;;;;;;5040783;28;20045;-76
2022/10/24 05:46:23;;;;;;;8.30;2.17;;;14.60;99.90;;;;;;5035997;28;20044;-76
2022/10/24 05:48:49;;;;;;;7.90;1.73;;;14.60;99.90;;;;;;5037406;28;20041;-76
2022/10/24 05:51:15;;;;;;;8.60;1.80;;;14.60;99.90;;;;;;5038845;28;20136;-76
2022/10/24 05:53:41;;;;;;;12.60;1.85;;;14.60;99.90;;;;;;5038316;28;20123;-75
2022/10/24 05:56:09;;;;;;;12.73;2.90;;;14.60;99.90;;;;;;5050716;28;20036;-74
2022/10/24 05:58:35;;;;;;;7.72;1.67;;;14.60;99.90;;;;;;5032826;28;20076;-76
2022/10/24 06:01:01;;;;;;;14.18;1.95;;;14.50;99.90;;;;;;5047934;28;20067;-76
2022/10/24 06:03:27;;;;;;;10.77;2.05;;;14.40;99.90;;;;;;5036735;28;20063;-77
2022/10/24 06:05:52;;;;;;;6.90;1.50;;;14.40;99.90;;;;;;5058181;28;20052;-77
2022/10/24 06:08:18;;;;;;;6.65;1.60;;;14.50;99.90;;;;;;5040606;28;20291;-76
2022/10/24 06:10:49;;;;;;;9.07;1.88;;;14.50;99.90;;;;;;5040901;28;20419;-77
2022/10/24 06:13:16;;;;;;;11.68;2.00;;;14.50;99.90;;;;;;5027996;28;20077;-75
2022/10/24 06:15:42;;;;;;;7.97;2.03;;;14.50;99.90;;;;;;5031219;28;20048;-76
2022/10/24 06:18:08;;;;;;;10.57;1.60;;;14.50;99.90;;;;;;5037744;28;20047;-75
2022/10/24 06:20:35;;;;;;;9.13;1.75;;;14.50;99.90;;;;;;5038013;28;20097;-77
2022/10/24 06:23:00;;;;;;;11.70;2.03;;;14.50;99.90;;;;;;5039648;28;20072;-76
2022/10/24 06:25:26;;;;;;;8.00;1.70;;;14.50;99.90;;;;;;5036165;28;20091;-76
2022/10/24 06:27:52;;;;;;;8.93;2.03;;;14.60;99.90;;;;;;5040116;28;20068;-77
2022/10/24 06:30:18;;;;;;;10.98;2.10;;;14.50;99.90;;;;;;5037335;28;20053;-75
2022/10/24 06:32:43;;;;;;;8.05;1.50;;;14.60;99.90;;;;;;5035832;28;20045;-74
2022/10/24 06:35:12;;;;;;;9.00;1.98;;;14.60;99.90;;;;;;5041600;28;20049;-76
2022/10/24 06:37:38;;;;;;;6.95;1.60;;;14.70;99.90;;;;;;5039800;28;20045;-77
2022/10/24 06:40:05;;;;;;;6.90;1.35;;;14.60;99.90;;;;;;5042493;28;20047;-75
2022/10/24 06:42:31;;;;;;;8.65;1.40;;;14.70;99.90;;;;;;5039436;28;20122;-76
2022/10/24 06:44:56;;;;;;;6.95;1.67;;;14.60;99.90;;;;;;5039782;28;20096;-76
2022/10/24 06:47:22;;;;;;;8.90;1.83;;;14.70;99.90;;;;;;5039128;28;20041;-76
2022/10/24 06:49:47;;;;;;;8.43;1.80;;;14.70;99.90;;;;;;5035317;28;20079;-76
2022/10/24 06:52:13;;;;;;;11.73;2.55;;;14.70;99.90;;;;;;5033882;28;20048;-74
2022/10/24 06:54:39;;;;;;;10.48;1.75;;;14.70;99.90;;;;;;5038065;28;20049;-75
2022/10/24 06:57:06;;;;;;;9.40;1.90;;;14.80;99.90;;;;;;5038009;28;20044;-75
2022/10/24 06:59:31;;;;;;;7.88;2.00;;;14.80;99.90;;;;;;5036714;28;20036;-75
2022/10/24 07:01:57;;;;;;;6.68;1.63;;;14.80;99.90;;;;;;5038150;28;20872;-75
2022/10/24 07:04:24;;;;;;;8.63;1.50;;;14.80;99.90;;;;;;5054774;28;20044;-75
2022/10/24 07:06:51;;;;;;;11.48;1.70;;;14.80;99.90;;;;;;5049252;28;20045;-75
2022/10/24 07:09:17;;;;;;;5.90;1.40;;;14.80;99.90;;;;;;5029454;28;20049;-75
2022/10/24 07:11:43;;;;;;;7.25;1.50;;;15.00;99.90;;;;;;5033514;28;20043;-76
2022/10/24 07:14:10;;;;;;;7.85;1.67;;;15.00;99.90;;;;;;5033123;28;20056;-75
2022/10/24 07:16:36;;;;;;;13.95;2.50;;;15.00;99.90;;;;;;5035446;28;20045;-75
2022/10/24 07:19:02;;;;;;;7.38;2.08;;;15.00;99.90;;;;;;5033216;28;20037;-74
2022/10/24 07:21:30;;;;;;;7.85;1.55;;;15.10;99.90;;;;;;5034940;28;20049;-75
2022/10/24 07:23:56;;;;;;;9.77;1.80;;;15.00;99.90;;;;;;5039929;28;20045;-75
2022/10/24 07:26:23;;;;;;;7.22;1.92;;;15.10;99.90;;;;;;5039554;28;20048;-76
2022/10/24 07:28:53;;;;;;;8.13;1.48;;;15.00;99.90;;;;;;5038616;28;20045;-77
2022/10/24 07:31:21;;;;;;;7.55;1.55;;;15.00;99.90;;;;;;5044802;28;20037;-79
2022/10/24 07:33:47;;;;;;;15.40;2.42;;;15.00;99.90;;;;;;5048620;28;20408;-78
2022/10/24 07:36:21;;;;;;;7.15;1.73;;;15.10;99.90;;;;;;5055487;28;20040;-78
2022/10/24 07:38:48;;;;;;;9.32;1.50;;;15.00;99.90;;;;;;5038667;28;20045;-80
2022/10/24 07:41:14;;;;;;;9.75;1.67;;;15.00;99.90;;;;;;5036486;28;20139;-78
2022/10/24 07:43:40;;;;;;;6.82;1.98;;;15.10;99.90;;;;;;5033335;28;20102;-78
2022/10/24 07:46:11;;;;;;;7.55;2.13;;;15.10;99.90;;;;;;5027392;28;20046;-78
2022/10/24 07:48:37;;;;;;;8.43;1.85;;;15.10;99.90;;;;;;5032898;28;20042;-77
2022/10/24 07:51:08;;;;;;;21.35;2.83;;;15.10;99.90;;;;;;5035941;28;20065;-77
2022/10/24 07:53:34;;;;;;;5.32;1.50;;;15.10;99.90;;;;;;5033121;28;20091;-76
2022/10/24 07:56:00;;;;;;;10.57;1.83;;;15.20;99.90;;;;;;5032871;28;20065;-77
2022/10/24 07:58:26;;;;;;;7.03;2.25;;;15.20;99.90;;;;;;5031122;28;20125;-77
2022/10/24 08:00:52;;;;;;;10.82;2.83;;;15.20;99.90;;;;;;5029594;28;20041;-77
2022/10/24 08:03:17;;;;;;;7.00;2.10;;;15.30;99.90;;;;;;5034208;28;20103;-77
2022/10/24 08:05:43;;;;;;;12.43;1.90;;;15.30;99.90;;;;;;5031383;28;20175;-77
2022/10/24 08:08:09;;;;;;;9.85;1.92;;;15.40;99.90;;;;;;5031654;28;20029;-76
2022/10/24 08:10:35;;;;;;;10.52;1.92;;;15.40;99.90;;;;;;5034929;28;20044;-76
2022/10/24 08:13:01;;;;;;;9.23;2.08;;;15.30;99.90;;;;;;5032781;28;20495;-77
2022/10/24 08:15:27;;;;;;;11.43;1.63;;;15.30;99.90;;;;;;5034659;28;20041;-76
2022/10/24 08:17:54;;;;;;;9.48;2.30;;;15.30;99.90;;;;;;5033833;28;20064;-76
2022/10/24 08:20:20;;;;;;;8.55;1.75;;;15.30;99.90;;;;;;5040021;28;20045;-76
2022/10/24 08:22:46;;;;;;;9.50;2.13;;;15.40;99.90;;;;;;5036990;28;20160;-77
2022/10/24 08:25:13;;;;;;;6.30;1.80;;;15.40;99.90;;;;;;5034518;28;22010;-76
2022/10/24 08:27:40;;;;;;;6.90;1.67;;;15.40;99.90;;;;;;5030499;28;20561;-77
2022/10/24 08:30:06;;;;;;;10.00;2.20;;;15.40;99.90;;;;;;5030285;28;20504;-77
2022/10/24 08:32:33;;;;;;;7.43;1.70;;;15.40;99.90;;;;;;5037876;28;20387;-76
2022/10/24 08:34:59;;;;;;;8.65;1.80;;;15.40;99.90;;;;;;5038537;28;22198;-77
2022/10/24 08:37:25;;;;;;;9.95;2.13;;;15.50;99.90;;;;;;5039806;28;20101;-79
2022/10/24 08:39:54;;;;;;;10.63;1.75;;;15.50;99.90;;;;;;5039359;28;20127;-76
2022/10/24 08:42:22;;;;;;;15.13;2.20;;;15.60;99.90;;;;;;5036636;28;20120;-78
2022/10/24 08:44:48;;;;;;;11.35;1.85;;;15.60;99.90;;;;;;5039238;28;20098;-77
2022/10/24 08:48:05;;;;;;;9.90;2.05;;;15.60;99.90;;;;;;5039338;28;20497;-77
2022/10/24 08:50:33;;;;;;;9.38;2.30;;;15.60;99.90;;;;;;4997279;28;20050;-78
2022/10/24 08:53:01;;;;;;;11.75;2.97;;;15.50;99.90;;;;;;4999104;28;20042;-77
2022/10/24 08:55:44;;;;;;;10.80;2.83;;;15.50;99.90;;;;;;5019008;28;20049;-76
2022/10/24 08:58:16;;;;;;;12.05;2.22;;;15.50;99.90;;;;;;5036194;28;20040;-76
2022/10/24 09:00:44;;;;;;;14.20;2.88;;;15.60;99.90;;;;;;5036327;28;20045;-76
2022/10/24 09:03:27;;;;;;;13.82;3.40;;;15.60;99.90;;;;;;5053047;28;20033;-76
2022/10/24 09:05:54;;;;;;;;;;;15.60;99.90;;;;;;5048581;28;20030;-79
2022/10/24 09:08:29;;;;;;;15.93;4.00;;;15.70;99.90;;;;;;5034233;28;19920;-77
2022/10/24 09:11:00;;;;;;;11.18;2.60;;;15.80;99.90;;;;;;5026087;28;20051;-77
2022/10/24 09:13:29;;;;;;;9.38;2.15;;;15.80;99.90;;;;;;5035003;28;20044;-77
2022/10/24 09:15:55;;;;;;;10.60;2.45;;;15.80;99.90;;;;;;5038756;28;20049;-78
2022/10/24 09:18:30;;;;;;;9.43;2.08;;;15.90;99.90;;;;;;5042027;28;20048;-76
2022/10/24 09:20:56;;;;;;;8.32;2.05;;;15.90;99.90;;;;;;5036368;28;20090;-75
2022/10/24 09:23:24;;;;;;;11.50;1.95;;;16.00;99.90;;;;;;5039383;28;20393;-77
2022/10/24 09:25:56;;;;;;;14.48;3.22;;;16.00;99.90;;;;;;5042269;28;20385;-75
2022/10/24 09:28:22;;;;;;;9.98;2.97;;;16.00;99.90;;;;;;5033980;28;20048;-73
2022/10/24 09:30:49;;;;;;;12.63;3.38;;;16.00;99.90;;;;;;5033943;28;20049;-76
2022/10/24 09:33:32;;;;;;;8.82;2.58;;;16.10;99.90;;;;;;5026483;28;20045;-76
2022/10/24 09:36:02;;;;;;;9.60;2.80;;;16.30;99.90;;;;;;5037236;28;20431;-77
2022/10/24 09:38:33;;;;;;;8.63;2.47;;;16.30;99.90;;;;;;5035331;28;20048;-77
2022/10/24 09:41:24;;;;;;;8.95;2.35;;;16.30;99.90;;;;;;5037638;28;20067;-77
2022/10/24 09:43:54;;;;;;;11.57;3.17;;;16.30;99.90;;;;;;5026032;28;20051;-77
2022/10/24 09:46:25;;;;;;;11.60;2.33;;;16.20;99.90;;;;;;5036284;28;20142;-78
2022/10/24 09:48:55;;;;;;;13.05;2.72;;;16.10;99.90;;;;;;5034580;28;20462;-79
2022/10/24 09:51:32;;;;;;;9.85;2.20;;;15.90;99.90;;;;;;5033655;28;20053;-79
2022/10/24 09:54:18;;;;;;;8.82;2.35;;;15.70;99.90;;;;;;5037958;28;20041;-79
2022/10/24 09:56:53;;;;;;;14.15;3.42;;;15.70;99.90;;;;;;5035987;28;20507;-78
2022/10/24 09:59:34;;;;;;;11.38;2.30;;;15.60;99.90;;;;;;5030653;28;20041;-78
2022/10/24 10:02:09;;;;;;;15.82;2.63;;;15.60;99.90;;;;;;5037900;28;20045;-77
2022/10/24 10:04:36;;;;;;;11.30;2.60;;;15.70;99.90;;;;;;5034110;28;20142;-78
2022/10/24 10:07:09;;;;;;;9.85;2.10;;;15.70;99.90;;;;;;5022003;28;20120;-75
2022/10/24 10:09:41;;;;;;;8.57;2.15;;;15.70;99.90;;;;;;5038588;28;20106;-78
2022/10/24 10:12:29;;;;;;;12.20;2.40;;;15.80;99.90;;;;;;5030554;28;20080;-78
2022/10/24 10:14:55;;;;;;;10.65;2.47;;;15.90;99.90;;;;;;5038194;28;20064;-80
2022/10/24 10:17:24;;;;;;;7.72;1.83;;;16.00;99.90;;;;;;5038294;28;20095;-80
2022/10/24 10:19:52;;;;;;;11.23;1.98;;;16.20;99.90;;;;;;5040354;28;20053;-80
2022/10/24 10:22:23;;;;;;;10.52;2.15;;;16.30;99.90;;;;;;5040330;28;20045;-80
2022/10/24 10:24:49;;;;;;;11.45;2.15;;;16.40;99.90;;;;;;5042784;28;20068;-79
2022/10/24 10:27:34;;;;;;;14.13;2.88;;;16.40;99.90;;;;;;5037727;28;20599;-79
2022/10/24 10:30:13;;;;;;;14.68;2.97;;;16.50;99.90;;;;;;5038457;28;20053;-79
2022/10/24 10:33:07;;;;;;;14.35;3.17;;;16.60;99.90;;;;;;5037062;28;20057;-79
2022/10/24 10:36:03;;;;;;;15.48;3.35;;;16.70;99.90;;;;;;5054246;28;20052;-80
2022/10/24 10:38:44;;;;;;;8.50;2.58;;;16.70;99.90;;;;;;5059356;28;20029;-79
2022/10/24 10:41:21;;;;;;;16.40;3.08;;;16.70;99.90;;;;;;5030259;28;20037;-77
2022/10/24 10:44:33;;;;;;;11.57;2.95;;;16.80;99.90;;;;;;5038151;28;20049;-78
2022/10/24 10:47:34;;;;;;;13.40;2.60;;;16.80;99.90;;;;;;5037041;28;20041;-78
2022/10/24 10:50:01;;;;;;;16.67;2.88;;;16.80;99.90;;;;;;5035164;28;20052;-79
2022/10/24 10:52:32;;;;;;;14.73;2.75;;;16.80;99.90;;;;;;5034185;28;20662;-78
2022/10/24 10:55:16;;;;;;;21.33;3.38;;;16.80;99.90;;;;;;5034555;28;20117;-78
2022/10/24 10:58:22;;;;;;;13.45;2.65;;;16.80;99.90;;;;;;5035973;28;20314;-78
2022/10/24 11:01:10;;;;;;;8.20;2.35;;;16.70;99.90;;;;;;5035070;28;20141;-79
2022/10/24 11:03:54;;;;;;;11.15;2.63;;;16.70;99.90;;;;;;5035017;28;20042;-76
2022/10/24 11:06:38;;;;;;;17.65;3.35;;;16.60;99.90;;;;;;5039804;28;20132;-76
2022/10/24 11:09:24;;;;;;;13.75;3.10;;;16.70;99.90;;;;;;5039132;28;20506;-76
2022/10/24 11:12:02;;;;;;;10.38;2.60;;;16.80;99.90;;;;;;5041978;28;20248;-76
2022/10/24 11:14:42;;;;;;;12.15;2.85;;;16.80;99.90;;;;;;5037281;28;20045;-77
2022/10/24 11:17:16;;;;;;;12.07;2.30;;;16.90;99.90;;;;;;5038065;28;20561;-76
2022/10/24 11:20:06;;;;;;;11.85;2.30;;;16.90;99.90;;;;;;5034205;28;20242;-78
2022/10/24 11:22:44;;;;;;;12.57;2.40;;;16.80;99.90;;;;;;5032542;28;20510;-77
2022/10/24 11:25:40;;;;;;;15.23;2.92;;;16.80;99.90;;;;;;5038824;28;20091;-76
2022/10/24 11:28:19;;;;;;;11.73;2.80;;;16.90;99.90;;;;;;5037549;28;20136;-76
2022/10/24 11:31:06;;;;;;;15.88;3.08;;;17.00;99.90;;;;;;5034736;28;20037;-75
2022/10/24 11:33:46;;;;;;;20.55;4.10;;;17.10;99.90;;;;;;5044608;28;20084;-76
2022/10/24 11:36:32;;;;;;;10.43;3.10;;;17.30;99.90;;;;;;5041240;28;20056;-77
2022/10/24 11:39:02;;;;;;;12.05;2.63;;;17.20;99.90;;;;;;5043369;28;20069;-78
2022/10/24 11:41:50;;;;;;;10.23;2.38;;;17.10;99.90;;;;;;5038079;28;20052;-78
2022/10/24 11:44:46;;;;;;;9.45;1.95;;;16.90;99.90;;;;;;5036446;28;20279;-78
2022/10/24 11:47:23;;;;;;;15.32;2.25;;;16.80;99.90;;;;;;5034564;28;20513;-78
2022/10/24 11:50:18;;;;;;;8.85;2.40;;;16.80;99.90;;;;;;5032232;28;20065;-77
2022/10/24 11:52:50;;;;;;;11.13;2.53;;;16.90;99.90;;;;;;5036769;28;20041;-77
2022/10/24 11:55:24;;;;;;;10.35;2.58;;;17.00;99.90;;;;;;5043588;28;20041;-76
2022/10/24 11:57:56;;;;;;;10.15;2.45;;;16.90;99.90;;;;;;5050794;28;20040;-76
2022/10/24 12:00:32;;;;;;;10.82;1.98;;;16.80;99.90;;;;;;5036704;28;20492;-76
2022/10/24 12:03:19;;;;;;;10.43;2.00;;;16.60;99.90;;;;;;5033851;28;20449;-77
2022/10/24 12:05:51;;;;;;;12.13;1.90;;;16.50;99.90;;;;;;5037894;28;20104;-79
2022/10/24 12:08:50;;;;;;;15.45;2.70;;;16.40;99.90;;;;;;5047798;28;20085;-77
2022/10/24 12:11:40;;;;;;;11.85;2.08;;;16.30;99.90;;;;;;5055683;28;20045;-78
2022/10/24 12:14:17;;;;;;;11.73;2.80;;;16.20;99.90;;;;;;5031505;28;20048;-77
2022/10/24 12:17:04;;;;;;;12.02;2.65;;;16.10;99.90;;;;;;5044252;28;20130;-78
2022/10/24 12:19:31;;;;;;;10.38;2.10;;;15.90;99.90;;;;;;5038345;28;20072;-78
2022/10/24 12:22:04;;;;;;;10.35;2.25;;;15.70;99.90;;;;;;5036072;28;20189;-78
2022/10/24 12:24:34;;;;;;;7.78;1.80;;;15.50;99.90;;;;;;5033851;28;20045;-78
2022/10/24 12:27:06;;;;;;;13.45;2.50;;;15.50;99.90;;;;;;5036888;28;21785;-78
2022/10/24 12:29:34;;;;;;;10.63;2.40;;;15.40;99.90;;;;;;5036790;28;20401;-77
2022/10/24 12:32:29;;;;;;;10.38;2.13;;;15.50;99.90;;;;;;5039668;28;20041;-77
2022/10/24 12:35:00;;;;;;;9.68;2.10;;;15.40;99.90;;;;;;5037283;28;20136;-78
2022/10/24 12:37:25;;;;;;;12.48;2.45;;;15.50;99.90;;;;;;5036520;28;20046;-77
2022/10/24 12:39:52;;;;;;;8.85;1.67;;;15.40;99.90;;;;;;5034316;28;20384;-77
2022/10/24 12:42:18;;;;;;;13.27;2.78;;;15.40;99.90;;;;;;5037086;28;20682;-76
2022/10/24 12:44:49;;;;;;;11.60;2.50;;;15.40;99.90;;;;;;5035909;28;20280;-77
2022/10/24 12:47:36;;;;;;;10.02;1.85;;;15.50;99.90;;;;;;5032159;28;20407;-76
2022/10/24 12:50:20;;;;;;;9.23;2.17;;;15.40;99.90;;;;;;5035194;28;20042;-77
2022/10/24 12:52:46;;;;;;;9.85;2.38;;;15.50;99.90;;;;;;5032324;28;20053;-76
2022/10/24 12:55:36;;;;;;;14.45;2.03;;;15.50;99.90;;;;;;5029819;28;20101;-75
2022/10/24 12:58:19;;;;;;;10.18;1.92;;;15.50;99.90;;;;;;5038593;28;20050;-76
2022/10/24 13:00:56;;;;;;;10.55;1.77;;;15.50;99.90;;;;;;5041684;28;20061;-77
2022/10/24 13:03:55;;;;;;;7.82;1.70;;;15.50;99.90;;;;;;5040798;28;20045;-76
2022/10/24 13:06:47;;;;;;;11.27;2.42;;;15.40;99.90;;;;;;5042118;28;20044;-76
2022/10/24 13:09:39;;;;;;;7.72;1.52;;;15.40;99.90;;;;;;5041764;28;20045;-76